createdAt,value
2022-08-19T00:01:00.229Z,4.18
2022-08-19T00:03:38.460Z,4.28
2022-08-19T00:06:17.610Z,4.50
2022-08-19T00:09:01.337Z,3.95
2022-08-19T00:11:41.369Z,4.35
2022-08-19T00:14:21.848Z,4.35
2022-08-19T00:19:39.063Z,3.75
2022-08-19T00:22:19.148Z,4.50
2022-08-19T00:24:57.611Z,4.50
2022-08-19T00:27:41.611Z,4.25
2022-08-19T00:30:19.854Z,4.82
2022-08-19T00:32:59.075Z,4.63
2022-08-19T00:35:39.637Z,4.38
2022-08-19T00:41:22.156Z,4.53
2022-08-19T00:44:09.054Z,3.92
2022-08-19T00:46:55.370Z,5.20
2022-08-19T00:49:42.491Z,5.70
2022-08-19T00:52:37.748Z,5.25
2022-08-19T00:55:29.907Z,5.90
2022-08-19T00:58:16.162Z,7.40
2022-08-19T01:00:54.300Z,6.60
2022-08-19T01:03:57.207Z,6.03
2022-08-19T01:06:32.687Z,6.72
2022-08-19T01:09:11.426Z,6.93
2022-08-19T01:11:49.737Z,6.68
2022-08-19T01:14:28.069Z,8.45
2022-08-19T01:17:08.212Z,8.00
2022-08-19T01:19:49.349Z,8.10
2022-08-19T01:22:47.768Z,7.63
2022-08-19T01:25:35.507Z,6.25
2022-08-19T01:28:34.254Z,5.68
2022-08-19T01:31:27.032Z,6.38
2022-08-19T01:34:06.828Z,7.18
2022-08-19T01:36:48.480Z,7.88
2022-08-19T01:39:27.247Z,7.68
2022-08-19T01:42:08.367Z,7.75
2022-08-19T01:44:46.604Z,8.45
2022-08-19T01:47:25.238Z,9.25
2022-08-19T01:50:04.833Z,9.23
2022-08-19T01:52:45.744Z,9.73
2022-08-19T01:55:25.149Z,9.55
2022-08-19T01:58:06.263Z,8.52
2022-08-19T02:00:46.397Z,10.45
2022-08-19T02:03:25.172Z,9.80
2022-08-19T02:06:06.285Z,8.60
2022-08-19T02:08:47.233Z,9.20
2022-08-19T02:11:37.487Z,9.13
2022-08-19T02:14:15.564Z,10.35
2022-08-19T02:16:53.687Z,10.23
2022-08-19T02:19:33.659Z,9.90
2022-08-19T02:22:11.733Z,11.40
2022-08-19T02:24:50.065Z,11.05
2022-08-19T02:27:28.447Z,11.70
2022-08-19T02:30:14.137Z,10.93
2022-08-19T02:32:54.003Z,10.93
2022-08-19T02:35:32.890Z,9.90
2022-08-19T02:38:26.565Z,11.27
2022-08-19T02:41:12.913Z,10.52
2022-08-19T02:44:28.618Z,10.82
2022-08-19T02:46:51.561Z,10.60
2022-08-19T02:49:34.635Z,10.73
2022-08-19T02:52:13.284Z,11.35
2022-08-19T02:54:51.356Z,11.23
2022-08-19T02:57:32.454Z,11.05
2022-08-19T03:00:14.220Z,11.70
2022-08-19T03:02:52.575Z,11.93
2022-08-19T03:05:49.239Z,10.48
2022-08-19T03:08:29.589Z,11.55
2022-08-19T03:11:13.130Z,11.45
2022-08-19T03:13:52.644Z,11.48
2022-08-19T03:16:34.399Z,12.02
2022-08-19T03:19:12.777Z,11.52
2022-08-19T03:21:52.608Z,13.40
2022-08-19T03:24:31.745Z,12.30
2022-08-19T03:27:09.931Z,11.77
2022-08-19T03:29:48.288Z,11.13
2022-08-19T03:32:32.285Z,12.90
2022-08-19T03:35:10.833Z,10.68
2022-08-19T03:37:48.965Z,10.73
2022-08-19T03:40:27.789Z,11.07
2022-08-19T03:43:07.146Z,9.40
2022-08-19T03:45:45.268Z,9.50
2022-08-19T03:48:23.380Z,9.35
2022-08-19T03:51:02.277Z,8.88
2022-08-19T03:53:40.739Z,8.15
2022-08-19T03:56:19.796Z,7.65
2022-08-19T03:59:00.767Z,8.45
2022-08-19T04:01:39.058Z,7.20
2022-08-19T04:04:17.304Z,6.38
2022-08-19T04:06:58.504Z,6.43
2022-08-19T04:09:37.713Z,5.53
2022-08-19T04:12:16.078Z,5.93
2022-08-19T04:14:54.223Z,5.43
2022-08-19T04:17:32.836Z,4.45
2022-08-19T04:20:11.272Z,4.53
2022-08-19T04:22:49.399Z,3.35
2022-08-19T04:25:27.531Z,5.22
2022-08-19T04:28:06.077Z,4.88
2022-08-19T04:30:49.014Z,3.70
2022-08-19T04:33:29.661Z,3.00
2022-08-19T04:36:08.753Z,2.83
2022-08-19T04:38:47.483Z,2.95
2022-08-19T04:41:44.563Z,3.20
2022-08-19T04:44:23.194Z,3.28
2022-08-19T04:47:02.401Z,3.10
2022-08-19T04:49:50.099Z,2.55
2022-08-19T04:52:28.176Z,2.95
2022-08-19T04:55:07.702Z,2.97
2022-08-19T04:57:45.750Z,3.53
2022-08-19T05:00:25.019Z,3.00
2022-08-19T05:03:03.530Z,3.50
2022-08-19T05:05:49.487Z,3.20
2022-08-19T05:08:30.725Z,3.33
2022-08-19T05:11:21.533Z,3.80
2022-08-19T05:14:03.349Z,3.88
2022-08-19T05:16:42.564Z,3.80
2022-08-19T05:19:39.511Z,3.45
2022-08-19T05:22:34.004Z,3.90
2022-08-19T05:25:20.344Z,3.35
2022-08-19T05:27:58.708Z,2.90
2022-08-19T05:30:46.778Z,2.95
2022-08-19T05:33:25.764Z,2.65
2022-08-19T05:36:05.686Z,3.50
2022-08-19T05:38:43.800Z,2.83
2022-08-19T05:41:31.432Z,2.88
2022-08-19T05:44:10.762Z,2.50
2022-08-19T05:46:49.603Z,2.70
2022-08-19T05:49:29.911Z,3.72
2022-08-19T05:52:14.541Z,2.50
2022-08-19T05:54:57.214Z,2.53
2022-08-19T05:57:35.433Z,2.30
2022-08-19T06:00:15.118Z,2.72
2022-08-19T06:02:53.429Z,2.43
2022-08-19T06:05:32.742Z,2.58
2022-08-19T06:08:33.885Z,2.20
2022-08-19T06:11:16.914Z,2.30
2022-08-19T06:14:00.109Z,2.10
2022-08-19T06:16:41.867Z,2.15
2022-08-19T06:19:23.458Z,1.90
2022-08-19T06:22:02.399Z,2.13
2022-08-19T06:24:40.599Z,2.25
2022-08-19T06:27:18.720Z,2.42
2022-08-19T06:29:56.862Z,1.90
2022-08-19T06:32:34.976Z,2.50
2022-08-19T06:35:15.603Z,2.35
2022-08-19T06:37:54.804Z,2.47
2022-08-19T06:40:33.214Z,1.98
2022-08-19T06:43:11.369Z,2.40
2022-08-19T06:45:53.595Z,2.40
2022-08-19T06:48:34.663Z,1.95
2022-08-19T06:51:19.929Z,1.70
2022-08-19T06:53:58.607Z,1.98
2022-08-19T06:56:37.244Z,1.88
2022-08-19T06:59:22.367Z,1.60
2022-08-19T07:02:07.629Z,1.42
2022-08-19T07:04:46.722Z,1.60
2022-08-19T07:07:25.087Z,1.40
2022-08-19T07:10:07.707Z,1.92
2022-08-19T07:12:46.280Z,1.50
2022-08-19T07:15:24.638Z,1.30
2022-08-19T07:18:02.762Z,1.30
2022-08-19T07:20:42.822Z,1.33
2022-08-19T07:23:20.952Z,1.10
2022-08-19T07:26:17.425Z,1.20
2022-08-19T07:28:57.272Z,1.20
2022-08-19T07:31:37.765Z,1.00
2022-08-19T07:36:56.654Z,1.10
2022-08-19T07:39:37.619Z,1.10
2022-08-19T07:42:15.905Z,1.08
2022-08-19T07:44:54.074Z,1.33
2022-08-19T07:47:58.510Z,1.23
2022-08-19T07:50:30.463Z,1.80
2022-08-19T07:53:08.568Z,1.60
2022-08-19T07:55:46.783Z,1.00
2022-08-19T07:58:25.038Z,1.60
2022-08-19T08:01:05.548Z,1.50
2022-08-19T08:06:59.521Z,1.10
2022-08-19T08:09:42.332Z,5.55
2022-08-19T08:12:35.137Z,2.17
2022-08-19T08:15:19.630Z,1.48
2022-08-19T08:17:58.799Z,1.35
2022-08-19T08:20:37.049Z,1.35
2022-08-19T08:23:26.245Z,1.40
2022-08-19T08:26:05.825Z,1.60
2022-08-19T08:28:47.883Z,1.50
2022-08-19T08:31:27.908Z,1.25
2022-08-19T08:34:06.137Z,1.20
2022-08-19T08:36:47.393Z,1.35
2022-08-19T08:39:25.582Z,1.52
2022-08-19T08:42:17.591Z,1.45
2022-08-19T08:45:16.068Z,1.27
2022-08-19T08:48:00.135Z,1.30
2022-08-19T08:50:46.285Z,1.50
2022-08-19T08:53:29.234Z,1.58
2022-08-19T08:56:14.104Z,1.40
2022-08-19T08:59:22.048Z,1.52
2022-08-19T09:02:00.719Z,1.38
2022-08-19T09:04:40.124Z,1.50
2022-08-19T09:07:40.168Z,1.30
2022-08-19T09:10:35.732Z,1.27
2022-08-19T09:13:59.869Z,1.30
2022-08-19T09:16:39.756Z,1.00
2022-08-19T09:19:22.339Z,1.65
2022-08-19T09:22:01.697Z,1.00
2022-08-19T09:24:40.481Z,1.20
2022-08-19T09:27:19.064Z,1.02
2022-08-19T09:29:57.491Z,1.23
2022-08-19T09:32:35.777Z,1.02
2022-08-19T09:35:15.652Z,1.15
2022-08-19T09:37:57.317Z,1.00
2022-08-19T09:40:38.592Z,0.93
2022-08-19T09:43:32.993Z,1.20
2022-08-19T09:46:12.931Z,1.35
2022-08-19T09:48:53.332Z,1.38
2022-08-19T09:51:31.493Z,1.30
2022-08-19T09:54:11.314Z,1.10
2022-08-19T09:56:50.496Z,1.10
2022-08-19T09:59:29.377Z,1.20
2022-08-19T10:02:11.928Z,1.65
2022-08-19T10:05:09.371Z,1.20
2022-08-19T10:07:48.118Z,1.15
2022-08-19T10:10:26.865Z,1.20
2022-08-19T10:13:05.412Z,0.98
2022-08-19T10:15:47.605Z,1.25
2022-08-19T10:18:27.622Z,1.35
2022-08-19T10:21:20.371Z,1.23
2022-08-19T10:24:04.855Z,2.05
2022-08-19T10:26:46.178Z,1.42
2022-08-19T10:29:33.105Z,1.70
2022-08-19T10:32:11.672Z,1.45
2022-08-19T10:34:57.228Z,1.23
2022-08-19T10:37:56.686Z,1.30
2022-08-19T10:40:36.052Z,1.60
2022-08-19T10:43:14.329Z,1.38
2022-08-19T10:45:58.165Z,1.08
2022-08-19T10:48:36.803Z,1.90
2022-08-19T10:51:34.390Z,1.83
2022-08-19T10:54:12.976Z,1.40
2022-08-19T10:56:53.803Z,1.77
2022-08-19T10:59:36.016Z,1.88
2022-08-19T11:02:14.540Z,1.60
2022-08-19T11:04:53.104Z,1.23
2022-08-19T11:07:32.504Z,2.00
2022-08-19T11:10:18.228Z,1.65
2022-08-19T11:12:59.253Z,1.33
2022-08-19T11:15:38.532Z,2.33
2022-08-19T11:18:18.056Z,1.83
2022-08-19T11:20:56.325Z,1.48
2022-08-19T11:23:34.553Z,1.40
2022-08-19T11:26:12.884Z,1.50
2022-08-19T11:28:54.563Z,1.25
2022-08-19T11:31:37.274Z,1.70
2022-08-19T11:34:21.893Z,2.22
2022-08-19T11:37:00.689Z,1.50
2022-08-19T11:39:39.990Z,1.55
2022-08-19T11:42:38.153Z,1.60
2022-08-19T11:45:16.444Z,1.90
2022-08-19T11:47:54.920Z,2.03
2022-08-19T11:50:33.121Z,2.42
2022-08-19T11:53:11.356Z,1.95
2022-08-19T11:55:50.183Z,1.80
2022-08-19T11:58:30.271Z,2.22
2022-08-19T12:01:12.221Z,1.70
2022-08-19T12:03:54.594Z,1.60
2022-08-19T12:06:35.388Z,1.30
2022-08-19T12:09:13.597Z,1.58
2022-08-19T12:11:52.033Z,1.40
2022-08-19T12:14:32.015Z,10.52
2022-08-19T12:17:10.617Z,2.45
2022-08-19T12:19:48.864Z,1.55
2022-08-19T12:22:27.502Z,1.80
2022-08-19T12:25:07.146Z,1.83
2022-08-19T12:27:52.842Z,1.50
2022-08-19T12:30:38.400Z,2.72
2022-08-19T12:33:16.782Z,1.55
2022-08-19T12:35:55.388Z,1.10
2022-08-19T12:38:35.695Z,1.27
2022-08-19T12:43:56.956Z,7.32
2022-08-19T12:46:35.209Z,3.53
2022-08-19T12:49:47.124Z,6.43
2022-08-19T12:52:12.130Z,2.10
2022-08-19T12:54:56.393Z,1.63
2022-08-19T12:57:37.222Z,7.32
2022-08-19T13:00:21.834Z,2.83
2022-08-19T13:03:01.685Z,2.40
2022-08-19T13:05:39.816Z,2.08
2022-08-19T13:08:18.276Z,1.40
2022-08-19T13:10:56.823Z,1.23
2022-08-19T13:13:34.927Z,1.30
2022-08-19T13:16:18.936Z,1.20
2022-08-19T13:18:58.763Z,2.90
2022-08-19T13:21:36.924Z,1.83
2022-08-19T13:24:15.135Z,4.90
2022-08-19T13:26:53.234Z,2.38
2022-08-19T13:29:50.128Z,2.63
2022-08-19T13:32:48.024Z,1.65
2022-08-19T13:35:27.156Z,1.23
2022-08-19T13:38:06.333Z,7.35
2022-08-19T13:40:51.423Z,2.63
2022-08-19T13:43:30.343Z,1.42
2022-08-19T13:46:15.109Z,1.40
2022-08-19T13:48:53.237Z,0.95
2022-08-19T13:51:31.387Z,1.30
2022-08-19T13:54:11.877Z,1.00
2022-08-19T13:56:50.146Z,0.95
2022-08-19T13:59:28.343Z,1.05
2022-08-19T14:02:06.662Z,1.20
2022-08-19T14:04:45.146Z,1.20
2022-08-19T14:07:24.790Z,1.40
2022-08-19T14:10:03.372Z,1.00
2022-08-19T14:12:42.350Z,1.52
2022-08-19T14:15:20.673Z,0.90
2022-08-19T14:17:59.072Z,1.10
2022-08-19T14:20:38.412Z,1.00
2022-08-19T14:23:16.696Z,0.97
2022-08-19T14:25:59.783Z,1.30
2022-08-19T14:28:43.009Z,1.02
2022-08-19T14:31:26.797Z,1.05
2022-08-19T14:34:08.436Z,1.10
2022-08-19T14:36:47.095Z,0.90
2022-08-19T14:39:28.005Z,1.08
2022-08-19T14:42:12.512Z,1.10
2022-08-19T14:44:50.658Z,1.33
2022-08-19T14:47:28.859Z,1.40
2022-08-19T14:50:17.822Z,1.08
2022-08-19T14:53:12.500Z,1.27
2022-08-19T14:55:50.814Z,1.58
2022-08-19T14:58:30.396Z,1.65
2022-08-19T15:01:11.056Z,1.10
2022-08-19T15:03:50.975Z,1.20
2022-08-19T15:06:30.193Z,1.05
2022-08-19T15:09:08.344Z,1.08
2022-08-19T15:11:46.928Z,1.48
2022-08-19T15:14:25.060Z,1.05
2022-08-19T15:17:06.800Z,3.97
2022-08-19T15:19:47.034Z,2.22
2022-08-19T15:25:07.124Z,1.08
2022-08-19T15:27:45.347Z,0.95
2022-08-19T15:30:28.091Z,2.95
2022-08-19T15:33:07.471Z,1.40
2022-08-19T15:35:46.338Z,1.80
2022-08-19T15:38:27.321Z,1.45
2022-08-19T15:41:26.736Z,1.10
2022-08-19T15:44:10.345Z,0.98
2022-08-19T15:46:49.914Z,1.27
2022-08-19T15:49:28.165Z,1.35
2022-08-19T15:52:07.804Z,1.02
2022-08-19T15:54:47.045Z,1.30
2022-08-19T15:57:25.237Z,1.48
2022-08-19T16:00:22.552Z,1.00
2022-08-19T16:03:23.546Z,1.10
2022-08-19T16:06:22.616Z,1.05
2022-08-19T16:09:04.171Z,1.02
2022-08-19T16:11:45.646Z,1.00
2022-08-19T16:14:25.852Z,1.10
2022-08-19T16:17:04.580Z,1.00
2022-08-19T16:19:42.834Z,1.15
2022-08-19T16:22:22.138Z,1.38
2022-08-19T16:25:00.666Z,1.40
2022-08-19T16:27:38.814Z,1.30
2022-08-19T16:30:17.080Z,1.60
2022-08-19T16:32:55.337Z,1.35
2022-08-19T16:35:33.623Z,1.30
2022-08-19T16:38:11.769Z,1.25
2022-08-19T16:40:54.736Z,1.05
2022-08-19T16:43:33.453Z,1.10
2022-08-19T16:46:12.386Z,2.67
2022-08-19T16:48:56.053Z,1.70
2022-08-19T16:51:35.607Z,1.35
2022-08-19T16:54:14.328Z,1.40
2022-08-19T16:56:52.569Z,1.30
2022-08-19T16:59:30.726Z,1.20
2022-08-19T17:02:08.889Z,1.10
2022-08-19T17:04:58.120Z,1.05
2022-08-19T17:07:39.024Z,1.67
2022-08-19T17:10:17.176Z,1.20
2022-08-19T17:12:55.792Z,1.60
2022-08-19T17:15:35.030Z,1.10
2022-08-19T17:18:14.951Z,1.38
2022-08-19T17:20:55.022Z,1.70
2022-08-19T17:23:42.239Z,1.98
2022-08-19T17:26:23.242Z,1.63
2022-08-19T17:29:01.471Z,1.33
2022-08-19T17:31:39.630Z,1.50
2022-08-19T17:34:17.784Z,1.30
2022-08-19T17:36:58.888Z,1.10
2022-08-19T17:39:39.764Z,1.25
2022-08-19T17:42:18.345Z,1.40
2022-08-19T17:44:59.529Z,1.60
2022-08-19T17:47:39.082Z,2.08
2022-08-19T17:50:18.407Z,2.10
2022-08-19T17:52:56.862Z,1.60
2022-08-19T17:55:36.424Z,1.15
2022-08-19T17:58:14.636Z,0.95
2022-08-19T18:00:55.625Z,0.95
2022-08-19T18:03:34.083Z,0.85
2022-08-19T18:06:16.703Z,1.05
2022-08-19T18:08:56.528Z,1.30
2022-08-19T18:11:35.088Z,2.28
2022-08-19T18:14:13.377Z,1.77
2022-08-19T18:16:54.406Z,1.45
2022-08-19T18:19:41.329Z,2.97
2022-08-19T18:22:34.056Z,2.92
2022-08-19T18:25:19.433Z,3.00
2022-08-19T18:28:00.655Z,2.60
2022-08-19T18:30:39.092Z,2.05
2022-08-19T18:33:17.422Z,1.83
2022-08-19T18:35:53.564Z,1.85
2022-08-19T18:38:50.460Z,1.70
2022-08-19T18:41:48.209Z,2.05
2022-08-19T18:44:45.264Z,1.30
2022-08-19T18:47:45.694Z,1.20
2022-08-19T18:50:25.515Z,1.27
2022-08-19T18:53:05.433Z,1.48
2022-08-19T18:55:46.027Z,3.40
2022-08-19T18:58:37.026Z,4.40
2022-08-19T19:01:23.218Z,2.70
2022-08-19T19:04:13.233Z,2.30
2022-08-19T19:06:54.265Z,2.85
2022-08-19T19:09:33.079Z,2.20
2022-08-19T19:12:15.638Z,1.70
2022-08-19T19:14:55.100Z,1.50
2022-08-19T19:17:33.940Z,1.50
2022-08-19T19:20:13.669Z,1.58
2022-08-19T19:22:56.076Z,1.55
2022-08-19T19:25:50.130Z,1.38
2022-08-19T19:28:29.901Z,1.85
2022-08-19T19:31:12.944Z,1.88
2022-08-19T19:33:53.227Z,3.10
2022-08-19T19:39:10.415Z,2.17
2022-08-19T19:41:49.256Z,1.80
2022-08-19T19:44:29.859Z,2.08
2022-08-19T19:47:10.976Z,1.88
2022-08-19T19:52:52.945Z,1.55
2022-08-19T19:58:10.152Z,1.30
2022-08-19T20:00:48.917Z,1.38
2022-08-19T20:03:30.045Z,1.50
2022-08-19T20:06:15.608Z,1.45
2022-08-19T20:09:12.230Z,1.25
2022-08-19T20:12:00.215Z,1.30
2022-08-19T20:14:40.226Z,1.30
2022-08-19T20:17:20.827Z,1.33
2022-08-19T20:19:59.851Z,1.25
2022-08-19T20:22:46.107Z,1.20
2022-08-19T20:25:25.288Z,1.23
2022-08-19T20:28:05.824Z,1.20
2022-08-19T20:30:46.719Z,1.30
2022-08-19T20:33:26.649Z,1.70
2022-08-19T20:36:05.063Z,1.60
2022-08-19T20:38:43.409Z,1.40
2022-08-19T20:41:22.376Z,1.55
2022-08-19T20:44:02.569Z,1.77
2022-08-19T20:46:43.657Z,1.50
2022-08-19T20:49:35.344Z,1.73
2022-08-19T20:52:14.042Z,1.15
2022-08-19T20:54:52.140Z,1.20
2022-08-19T20:57:30.287Z,1.42
2022-08-19T21:00:12.443Z,1.27
2022-08-19T21:02:50.594Z,3.70
2022-08-19T21:05:30.700Z,3.45
2022-08-19T21:08:09.349Z,4.05
2022-08-19T21:10:50.666Z,3.50
2022-08-19T21:13:29.154Z,1.88
2022-08-19T21:16:09.434Z,1.70
2022-08-19T21:21:26.844Z,1.38
2022-08-19T21:24:05.345Z,1.50
2022-08-19T21:26:49.390Z,1.17
2022-08-19T21:29:32.197Z,1.10
2022-08-19T21:32:14.130Z,1.20
2022-08-19T21:34:52.986Z,1.30
2022-08-19T21:37:34.910Z,1.23
2022-08-19T21:40:13.724Z,1.30
2022-08-19T21:42:52.620Z,1.30
2022-08-19T21:45:30.860Z,1.38
2022-08-19T21:48:09.057Z,1.52
2022-08-19T21:50:48.312Z,1.30
2022-08-19T21:53:34.218Z,1.27
2022-08-19T21:56:13.085Z,1.02
2022-08-19T21:58:51.523Z,1.00
2022-08-19T22:01:30.442Z,1.27
2022-08-19T22:04:09.163Z,1.20
2022-08-19T22:06:47.503Z,0.93
2022-08-19T22:09:25.748Z,1.50
2022-08-19T22:12:06.017Z,1.40
2022-08-19T22:14:41.699Z,0.90
2022-08-19T22:17:20.905Z,0.90
2022-08-19T22:19:59.232Z,1.10
2022-08-19T22:22:40.256Z,0.80
2022-08-19T22:25:46.658Z,1.05
2022-08-19T22:28:28.012Z,1.05
2022-08-19T22:31:06.717Z,0.85
2022-08-19T22:33:45.380Z,0.95
2022-08-19T22:36:23.938Z,1.10
2022-08-19T22:39:03.530Z,0.88
2022-08-19T22:41:41.620Z,1.00
2022-08-19T22:44:20.585Z,0.90
2022-08-19T22:46:58.949Z,1.00
2022-08-19T22:49:37.066Z,1.00
2022-08-19T22:52:18.315Z,0.75
2022-08-19T22:55:02.482Z,1.05
2022-08-19T22:57:40.631Z,0.77
2022-08-19T23:00:19.927Z,0.70
2022-08-19T23:02:59.255Z,0.80
2022-08-19T23:05:37.372Z,0.90
2022-08-19T23:08:18.896Z,1.00
2022-08-19T23:10:57.008Z,0.90
2022-08-19T23:13:35.381Z,1.00
2022-08-19T23:16:14.267Z,1.08
2022-08-19T23:18:56.008Z,1.27
2022-08-19T23:21:36.311Z,1.05
2022-08-19T23:24:14.507Z,1.30
2022-08-19T23:27:11.408Z,0.82
2022-08-19T23:30:08.292Z,0.93
2022-08-19T23:32:46.553Z,1.20
2022-08-19T23:35:27.859Z,0.82
2022-08-19T23:38:07.539Z,1.00
2022-08-19T23:40:46.447Z,0.95
2022-08-19T23:43:31.155Z,1.00
2022-08-19T23:46:27.981Z,1.00
2022-08-19T23:49:06.720Z,1.23
2022-08-19T23:51:44.867Z,1.00
2022-08-19T23:54:42.810Z,1.05
2022-08-19T23:57:21.418Z,1.30
